createdAt,value
2022-10-09T00:00:12.768Z,6.92
2022-10-09T00:01:12.785Z,6.92
2022-10-09T00:02:12.824Z,6.88
2022-10-09T00:03:12.813Z,6.86
2022-10-09T00:04:12.816Z,6.82
2022-10-09T00:05:12.858Z,6.83
2022-10-09T00:06:12.848Z,6.84
2022-10-09T00:07:12.860Z,6.82
2022-10-09T00:08:12.871Z,6.80
2022-10-09T00:09:12.886Z,6.76
2022-10-09T00:10:12.897Z,6.76
2022-10-09T00:11:12.902Z,6.77
2022-10-09T00:12:12.912Z,6.75
2022-10-09T00:13:12.929Z,6.81
2022-10-09T00:14:12.937Z,6.75
2022-10-09T00:15:12.958Z,6.77
2022-10-09T00:16:12.965Z,6.77
2022-10-09T00:17:12.971Z,6.71
2022-10-09T00:18:12.983Z,6.71
2022-10-09T00:19:12.990Z,6.73
2022-10-09T00:20:13.000Z,6.71
2022-10-09T00:21:13.018Z,6.70
2022-10-09T00:22:13.028Z,6.68
2022-10-09T00:23:13.035Z,6.71
2022-10-09T00:24:13.044Z,6.73
2022-10-09T00:25:13.048Z,6.73
2022-10-09T00:26:13.062Z,6.71
2022-10-09T00:27:13.089Z,6.68
2022-10-09T00:28:13.118Z,6.69
2022-10-09T00:29:13.094Z,6.68
2022-10-09T00:30:13.096Z,6.64
2022-10-09T00:31:13.142Z,6.61
2022-10-09T00:32:13.110Z,6.58
2022-10-09T00:33:13.125Z,6.60
2022-10-09T00:34:13.130Z,6.59
2022-10-09T00:35:13.150Z,6.55
2022-10-09T00:36:13.163Z,6.55
2022-10-09T00:37:13.182Z,6.54
2022-10-09T00:38:13.202Z,6.55
2022-10-09T00:39:13.220Z,6.54
2022-10-09T00:40:13.237Z,6.52
2022-10-09T00:41:13.256Z,6.50
2022-10-09T00:42:13.279Z,6.48
2022-10-09T00:43:13.297Z,6.48
2022-10-09T01:01:13.938Z,6.79
2022-10-09T01:02:13.612Z,6.83
2022-10-09T01:03:13.550Z,6.90
2022-10-09T01:04:13.560Z,6.93
2022-10-09T01:05:13.570Z,6.94
2022-10-09T01:06:13.591Z,6.93
2022-10-09T01:07:13.602Z,6.90
2022-10-09T01:08:13.608Z,6.86
2022-10-09T01:09:13.618Z,6.84
2022-10-09T01:10:13.626Z,6.82
2022-10-09T01:11:13.659Z,6.78
2022-10-09T01:12:13.670Z,6.73
2022-10-09T01:13:13.661Z,6.73
2022-10-09T01:14:13.672Z,6.68
2022-10-09T01:15:13.686Z,6.64
2022-10-09T01:16:13.784Z,6.63
2022-10-09T01:17:13.702Z,6.63
2022-10-09T01:18:13.714Z,6.62
2022-10-09T01:19:13.735Z,6.63
2022-10-09T01:20:13.741Z,6.63
2022-10-09T01:21:13.753Z,6.63
2022-10-09T01:22:13.757Z,6.63
2022-10-09T01:23:13.772Z,6.65
2022-10-09T01:24:13.785Z,6.67
2022-10-09T01:25:13.794Z,6.68
2022-10-09T01:26:13.806Z,6.68
2022-10-09T01:27:13.822Z,6.71
2022-10-09T01:28:13.855Z,6.73
2022-10-09T01:29:13.843Z,6.75
2022-10-09T01:30:13.855Z,6.73
2022-10-09T01:31:13.923Z,6.73
2022-10-09T01:32:13.884Z,6.73
2022-10-09T01:33:13.903Z,6.72
2022-10-09T01:34:13.908Z,6.71
2022-10-09T01:35:13.936Z,6.72
2022-10-09T01:36:13.944Z,6.73
2022-10-09T01:37:13.958Z,6.74
2022-10-09T01:38:13.974Z,6.73
2022-10-09T01:39:13.992Z,6.71
2022-10-09T01:40:14.004Z,6.70
2022-10-09T01:41:14.021Z,6.71
2022-10-09T01:42:14.039Z,6.70
2022-10-09T01:43:14.047Z,6.72
2022-10-09T01:44:14.065Z,6.74
2022-10-09T01:45:14.071Z,6.74
2022-10-09T01:46:14.145Z,6.74
2022-10-09T01:47:14.094Z,6.76
2022-10-09T01:48:14.114Z,6.74
2022-10-09T01:49:14.117Z,6.74
2022-10-09T01:50:14.139Z,6.72
2022-10-09T01:51:14.138Z,6.71
2022-10-09T01:52:14.162Z,6.70
2022-10-09T01:53:14.165Z,6.68
2022-10-09T01:54:14.172Z,6.67
2022-10-09T01:55:14.173Z,6.69
2022-10-09T01:56:14.180Z,6.70
2022-10-09T01:57:14.194Z,6.71
2022-10-09T01:58:14.211Z,6.73
2022-10-09T01:59:15.947Z,6.72
2022-10-09T02:00:14.240Z,6.73
2022-10-09T02:01:14.271Z,6.77
2022-10-09T02:02:14.345Z,6.80
2022-10-09T02:03:14.284Z,6.83
2022-10-09T02:04:14.300Z,6.89
2022-10-09T02:05:14.320Z,6.92
2022-10-09T02:06:14.322Z,6.96
2022-10-09T02:07:14.332Z,7.01
2022-10-09T02:08:14.350Z,7.04
2022-10-09T02:09:14.363Z,7.05
2022-10-09T02:10:14.379Z,7.07
2022-10-09T02:11:14.389Z,7.08
2022-10-09T02:12:14.405Z,7.11
2022-10-09T02:13:14.415Z,7.10
2022-10-09T02:14:14.437Z,7.12
2022-10-09T02:15:14.444Z,7.11
2022-10-09T02:16:14.520Z,7.14
2022-10-09T02:17:14.475Z,7.18
2022-10-09T02:18:14.493Z,7.22
2022-10-09T02:19:14.508Z,7.23
2022-10-09T02:20:14.514Z,7.25
2022-10-09T02:21:14.529Z,7.26
2022-10-09T02:22:14.548Z,7.29
2022-10-09T02:23:14.558Z,7.33
2022-10-09T02:24:14.563Z,7.34
2022-10-09T02:25:14.573Z,7.37
2022-10-09T02:26:14.594Z,7.40
2022-10-09T02:27:14.605Z,7.41
2022-10-09T02:28:14.655Z,7.44
2022-10-09T02:29:14.629Z,7.47
2022-10-09T02:30:14.648Z,7.49
2022-10-09T02:31:14.734Z,7.51
2022-10-09T02:32:14.677Z,7.51
2022-10-09T02:33:14.713Z,7.56
2022-10-09T02:34:14.696Z,7.58
2022-10-09T02:35:14.707Z,7.56
2022-10-09T02:36:14.716Z,7.61
2022-10-09T02:37:14.724Z,7.62
2022-10-09T02:38:14.733Z,7.67
2022-10-09T02:39:14.740Z,7.68
2022-10-09T02:40:14.745Z,7.73
2022-10-09T02:41:14.755Z,7.76
2022-10-09T02:42:14.763Z,7.77
2022-10-09T02:43:14.772Z,7.78
2022-10-09T02:44:14.778Z,7.82
2022-10-09T02:45:14.788Z,7.80
2022-10-09T02:46:14.822Z,7.81
2022-10-09T02:47:14.797Z,7.81
2022-10-09T02:48:14.803Z,7.81
2022-10-09T02:49:14.809Z,7.81
2022-10-09T02:50:14.816Z,7.85
2022-10-09T02:51:14.821Z,7.86
2022-10-09T02:52:14.827Z,7.87
2022-10-09T02:53:14.834Z,7.87
2022-10-09T02:54:14.839Z,7.88
2022-10-09T02:55:14.846Z,7.90
2022-10-09T02:56:14.853Z,7.92
2022-10-09T02:57:14.861Z,7.92
2022-10-09T02:58:14.865Z,7.93
2022-10-09T02:59:14.872Z,7.93
2022-10-09T03:00:14.878Z,7.94
2022-10-09T03:01:14.886Z,7.94
2022-10-09T03:02:14.967Z,7.93
2022-10-09T03:03:14.899Z,7.93
2022-10-09T03:04:14.909Z,7.90
2022-10-09T03:05:14.917Z,7.90
2022-10-09T03:06:14.931Z,7.89
2022-10-09T03:07:14.931Z,7.87
2022-10-09T03:08:14.934Z,7.86
2022-10-09T03:09:14.942Z,7.86
2022-10-09T03:10:14.949Z,7.86
2022-10-09T03:11:14.956Z,7.86
2022-10-09T03:12:14.961Z,7.86
2022-10-09T03:13:14.967Z,7.83
2022-10-09T03:14:14.974Z,7.83
2022-10-09T03:15:14.994Z,7.82
2022-10-09T03:16:15.047Z,7.78
2022-10-09T03:17:14.996Z,7.77
2022-10-09T03:18:14.997Z,7.76
2022-10-09T03:19:15.005Z,7.73
2022-10-09T03:20:15.011Z,7.72
2022-10-09T03:21:15.016Z,7.72
2022-10-09T03:22:15.026Z,7.71
2022-10-09T03:23:15.028Z,7.70
2022-10-09T03:24:15.033Z,7.70
2022-10-09T03:25:15.041Z,7.71
2022-10-09T03:26:15.046Z,7.71
2022-10-09T03:27:15.052Z,7.74
2022-10-09T03:28:15.105Z,7.76
2022-10-09T03:29:15.065Z,7.80
2022-10-09T03:30:15.072Z,7.81
2022-10-09T03:31:27.588Z,7.80
2022-10-09T03:32:15.144Z,7.81
2022-10-09T03:33:15.089Z,7.83
2022-10-09T03:34:15.096Z,7.87
2022-10-09T03:35:15.104Z,7.92
2022-10-09T03:36:15.110Z,7.95
2022-10-09T03:37:15.113Z,7.96
2022-10-09T03:38:15.119Z,7.96
2022-10-09T03:39:15.125Z,7.96
2022-10-09T03:40:15.131Z,7.96
2022-10-09T03:41:15.139Z,7.96
2022-10-09T03:42:15.145Z,7.97
2022-10-09T03:43:15.152Z,7.97
2022-10-09T03:44:15.156Z,7.95
2022-10-09T03:45:15.162Z,7.94
2022-10-09T03:46:15.232Z,7.97
2022-10-09T03:47:15.179Z,7.98
2022-10-09T03:48:15.179Z,7.98
2022-10-09T03:49:15.193Z,7.98
2022-10-09T03:50:15.199Z,7.99
2022-10-09T03:51:15.204Z,7.97
2022-10-09T03:52:15.212Z,7.96
2022-10-09T03:53:15.221Z,7.96
2022-10-09T03:54:15.229Z,7.97
2022-10-09T03:55:15.233Z,7.96
2022-10-09T03:56:15.240Z,7.96
2022-10-09T03:57:15.245Z,7.94
2022-10-09T03:58:15.251Z,7.94
2022-10-09T03:59:15.259Z,7.90
2022-10-09T04:00:15.266Z,7.89
2022-10-09T04:01:15.419Z,7.83
2022-10-09T04:02:15.331Z,7.79
2022-10-09T04:03:15.280Z,7.75
2022-10-09T04:04:15.287Z,7.75
2022-10-09T04:05:15.293Z,7.74
2022-10-09T04:06:15.300Z,7.71
2022-10-09T04:07:15.305Z,7.68
2022-10-09T04:08:15.312Z,7.65
2022-10-09T04:09:15.324Z,7.63
2022-10-09T04:10:15.324Z,7.62
2022-10-09T04:11:15.329Z,7.59
2022-10-09T04:12:15.335Z,7.57
2022-10-09T04:13:15.343Z,7.54
2022-10-09T04:14:15.348Z,7.51
2022-10-09T04:15:15.357Z,7.50
2022-10-09T04:16:15.421Z,7.48
2022-10-09T04:17:15.367Z,7.46
2022-10-09T04:18:15.372Z,7.41
2022-10-09T04:19:15.378Z,7.38
2022-10-09T04:20:15.383Z,7.34
2022-10-09T04:21:15.388Z,7.31
2022-10-09T04:22:15.396Z,7.27
2022-10-09T04:23:15.402Z,7.26
2022-10-09T04:24:15.408Z,7.23
2022-10-09T04:25:15.413Z,7.18
2022-10-09T04:26:15.420Z,7.14
2022-10-09T04:27:15.429Z,7.13
2022-10-09T04:28:15.483Z,7.12
2022-10-09T04:29:15.437Z,7.13
2022-10-09T04:30:15.444Z,7.10
2022-10-09T04:31:15.499Z,7.07
2022-10-09T04:32:15.460Z,7.08
2022-10-09T04:33:15.466Z,7.03
2022-10-09T04:34:15.479Z,7.02
2022-10-09T04:35:15.479Z,7.01
2022-10-09T04:36:15.484Z,7.00
2022-10-09T04:37:15.492Z,6.94
2022-10-09T04:38:15.521Z,6.87
2022-10-09T04:39:15.511Z,6.86
2022-10-09T04:40:15.512Z,6.82
2022-10-09T04:41:15.520Z,6.79
2022-10-09T04:42:15.524Z,6.75
2022-10-09T04:43:15.531Z,6.72
2022-10-09T04:44:15.536Z,6.71
2022-10-09T04:45:15.543Z,6.70
2022-10-09T04:46:15.611Z,6.71
2022-10-09T04:47:15.553Z,6.72
2022-10-09T04:48:15.560Z,6.70
2022-10-09T04:49:15.567Z,6.68
2022-10-09T04:50:15.570Z,6.67
2022-10-09T04:51:15.598Z,6.65
2022-10-09T04:52:15.582Z,6.64
2022-10-09T04:53:15.586Z,6.61
2022-10-09T04:54:15.593Z,6.60
2022-10-09T04:55:15.601Z,6.62
2022-10-09T04:56:15.607Z,6.63
2022-10-09T04:57:15.617Z,6.63
2022-10-09T04:58:15.637Z,6.65
2022-10-09T04:59:15.634Z,6.62
2022-10-09T05:00:15.642Z,6.61
2022-10-09T05:01:15.709Z,6.60
2022-10-09T05:02:15.685Z,6.60
2022-10-09T05:03:15.661Z,6.57
2022-10-09T05:04:15.663Z,6.57
2022-10-09T05:05:15.670Z,6.55
2022-10-09T05:06:15.679Z,6.53
2022-10-09T05:07:15.681Z,6.54
2022-10-09T05:08:15.688Z,6.52
2022-10-09T05:09:15.699Z,6.49
2022-10-09T05:10:15.701Z,6.51
2022-10-09T05:11:15.707Z,6.49
2022-10-09T05:12:15.713Z,6.47
2022-10-09T05:13:15.719Z,6.47
2022-10-09T05:14:15.725Z,6.46
2022-10-09T05:15:15.731Z,6.44
2022-10-09T05:16:15.786Z,6.45
2022-10-09T05:17:17.915Z,6.42
2022-10-09T05:18:15.749Z,6.41
2022-10-09T05:19:15.755Z,6.38
2022-10-09T05:20:15.762Z,6.39
2022-10-09T05:21:15.770Z,6.36
2022-10-09T05:22:15.773Z,6.34
2022-10-09T05:23:15.784Z,6.32
2022-10-09T05:24:15.793Z,6.34
2022-10-09T05:25:15.801Z,6.37
2022-10-09T05:26:15.803Z,6.38
2022-10-09T05:27:15.811Z,6.37
2022-10-09T05:28:15.853Z,6.35
2022-10-09T05:29:15.828Z,6.38
2022-10-09T05:30:15.829Z,6.37
2022-10-09T05:31:15.845Z,6.37
2022-10-09T05:32:15.842Z,6.37
2022-10-09T05:33:15.846Z,6.39
2022-10-09T05:34:15.852Z,6.41
2022-10-09T05:35:15.857Z,6.41
2022-10-09T05:36:15.868Z,6.42
2022-10-09T05:37:15.871Z,6.42
2022-10-09T05:38:15.879Z,6.41
2022-10-09T05:39:15.885Z,6.40
2022-10-09T05:40:15.891Z,6.39
2022-10-09T05:41:15.894Z,6.37
2022-10-09T05:42:15.901Z,6.36
2022-10-09T05:43:15.908Z,6.36
2022-10-09T05:44:15.915Z,6.36
2022-10-09T05:45:15.921Z,6.36
2022-10-09T05:46:16.013Z,6.37
2022-10-09T05:47:15.933Z,6.35
2022-10-09T05:48:15.939Z,6.35
2022-10-09T05:49:15.945Z,6.36
2022-10-09T05:50:15.953Z,6.35
2022-10-09T05:51:15.957Z,6.35
2022-10-09T05:52:15.963Z,6.34
2022-10-09T05:53:15.969Z,6.35
2022-10-09T05:54:15.977Z,6.35
2022-10-09T05:55:15.986Z,6.35
2022-10-09T05:56:15.988Z,6.34
2022-10-09T05:57:15.994Z,6.35
2022-10-09T05:58:15.999Z,6.36
2022-10-09T05:59:16.007Z,6.36
2022-10-09T06:00:16.011Z,6.34
2022-10-09T06:01:16.076Z,6.36
2022-10-09T06:02:16.061Z,6.34
2022-10-09T06:03:16.045Z,6.36
2022-10-09T06:04:16.048Z,6.36
2022-10-09T06:05:16.057Z,6.39
2022-10-09T06:06:16.063Z,6.42
2022-10-09T06:07:16.078Z,6.42
2022-10-09T06:08:16.086Z,6.46
2022-10-09T06:09:16.100Z,6.46
2022-10-09T06:10:16.102Z,6.45
2022-10-09T06:11:16.113Z,6.48
2022-10-09T06:12:16.120Z,6.46
2022-10-09T06:13:16.125Z,6.50
2022-10-09T06:14:16.132Z,6.49
2022-10-09T06:15:16.141Z,6.51
2022-10-09T06:16:16.211Z,6.55
2022-10-09T06:17:16.156Z,6.57
2022-10-09T06:18:16.164Z,6.59
2022-10-09T06:19:16.170Z,6.61
2022-10-09T06:20:16.178Z,6.63
2022-10-09T06:21:16.181Z,6.64
2022-10-09T06:22:16.187Z,6.66
2022-10-09T06:23:16.194Z,6.71
2022-10-09T06:24:16.201Z,6.72
2022-10-09T06:25:16.207Z,6.73
2022-10-09T06:26:16.212Z,6.74
2022-10-09T06:27:16.224Z,6.76
2022-10-09T06:28:16.266Z,6.77
2022-10-09T06:29:16.239Z,6.75
2022-10-09T06:30:16.244Z,6.73
2022-10-09T06:31:16.344Z,6.73
2022-10-09T06:32:16.259Z,6.74
2022-10-09T06:33:16.270Z,6.73
2022-10-09T06:34:16.275Z,6.74
2022-10-09T06:35:16.284Z,6.82
2022-10-09T06:36:16.290Z,6.88
2022-10-09T06:37:16.296Z,6.95
2022-10-09T06:38:16.309Z,7.01
2022-10-09T06:39:16.317Z,7.07
2022-10-09T06:40:16.328Z,7.11
2022-10-09T06:41:16.330Z,7.16
2022-10-09T06:42:16.337Z,7.20
2022-10-09T06:43:16.344Z,7.19
2022-10-09T06:44:17.070Z,7.24
2022-10-09T06:45:16.357Z,7.23
2022-10-09T06:46:16.440Z,7.22
2022-10-09T06:47:16.373Z,7.24
2022-10-09T06:48:16.380Z,7.19
2022-10-09T06:49:16.384Z,7.19
2022-10-09T06:50:16.390Z,7.17
2022-10-09T06:51:16.397Z,7.20
2022-10-09T06:52:16.403Z,7.18
2022-10-09T06:53:16.411Z,7.19
2022-10-09T06:54:16.414Z,7.23
2022-10-09T06:55:16.418Z,7.23
2022-10-09T06:56:16.430Z,7.23
2022-10-09T06:57:16.434Z,7.25
2022-10-09T06:58:16.444Z,7.26
2022-10-09T06:59:16.452Z,7.27
2022-10-09T07:00:16.460Z,7.27
2022-10-09T07:01:16.492Z,7.31
2022-10-09T07:02:16.562Z,7.33
2022-10-09T07:03:16.482Z,7.33
2022-10-09T07:04:16.490Z,7.32
2022-10-09T07:05:16.499Z,7.34
2022-10-09T07:06:16.501Z,7.33
2022-10-09T07:07:16.508Z,7.36
2022-10-09T07:08:16.515Z,7.39
2022-10-09T07:09:16.549Z,7.43
2022-10-09T07:10:16.530Z,7.44
2022-10-09T07:11:16.537Z,7.47
2022-10-09T07:12:16.542Z,7.48
2022-10-09T07:13:16.547Z,7.51
2022-10-09T07:14:16.555Z,7.54
2022-10-09T07:15:16.560Z,7.56
2022-10-09T07:16:16.695Z,7.57
2022-10-09T07:17:16.573Z,7.60
2022-10-09T07:18:16.587Z,7.60
2022-10-09T07:19:16.589Z,7.63
2022-10-09T07:20:16.596Z,7.64
2022-10-09T07:21:16.597Z,7.66
2022-10-09T07:22:16.604Z,7.68
2022-10-09T07:23:16.609Z,7.70
2022-10-09T07:24:16.615Z,7.72
2022-10-09T07:25:16.623Z,7.75
2022-10-09T07:26:16.631Z,7.74
2022-10-09T07:27:16.639Z,7.75
2022-10-09T07:28:16.703Z,7.78
2022-10-09T07:29:16.657Z,7.79
2022-10-09T07:30:16.662Z,7.83
2022-10-09T07:31:16.734Z,7.89
2022-10-09T07:32:16.677Z,7.89
2022-10-09T07:33:16.685Z,7.92
2022-10-09T07:34:16.698Z,7.97
2022-10-09T07:35:16.706Z,7.98
2022-10-09T07:36:16.715Z,8.01
2022-10-09T07:37:16.719Z,8.05
2022-10-09T07:38:16.726Z,8.06
2022-10-09T07:39:16.737Z,8.10
2022-10-09T07:40:16.752Z,8.15
2022-10-09T07:41:16.750Z,8.13
2022-10-09T07:42:16.759Z,8.15
2022-10-09T07:43:16.764Z,8.15
2022-10-09T07:44:16.775Z,8.15
2022-10-09T07:45:16.782Z,8.21
2022-10-09T07:46:16.889Z,8.19
2022-10-09T07:47:16.804Z,8.22
2022-10-09T07:48:16.814Z,8.22
2022-10-09T07:49:16.818Z,8.23
2022-10-09T07:50:16.828Z,8.25
2022-10-09T07:51:16.835Z,8.27
2022-10-09T07:52:16.846Z,8.28
2022-10-09T07:53:16.850Z,8.30
2022-10-09T07:54:16.858Z,8.33
2022-10-09T07:55:16.863Z,8.35
2022-10-09T07:56:16.868Z,8.39
2022-10-09T07:57:16.874Z,8.40
2022-10-09T07:58:16.882Z,8.43
2022-10-09T07:59:16.884Z,8.44
2022-10-09T08:00:16.909Z,8.46
2022-10-09T08:01:20.042Z,8.47
2022-10-09T08:02:16.963Z,8.51
2022-10-09T08:03:16.916Z,8.54
2022-10-09T08:04:16.924Z,8.56
2022-10-09T08:05:16.931Z,8.57
2022-10-09T08:06:16.938Z,8.59
2022-10-09T08:07:16.945Z,8.62
2022-10-09T08:08:16.949Z,8.68
2022-10-09T08:09:16.962Z,8.71
2022-10-09T08:10:16.963Z,8.74
2022-10-09T08:11:16.977Z,8.79
2022-10-09T08:12:16.978Z,8.81
2022-10-09T08:13:16.984Z,8.82
2022-10-09T08:14:19.377Z,8.84
2022-10-09T08:15:16.997Z,8.85
2022-10-09T08:16:17.112Z,8.86
2022-10-09T08:17:17.019Z,8.88
2022-10-09T08:18:17.019Z,8.90
2022-10-09T08:19:17.023Z,8.94
2022-10-09T08:20:17.025Z,8.97
2022-10-09T08:21:17.036Z,8.99
2022-10-09T08:22:17.046Z,9.02
2022-10-09T08:23:17.050Z,9.06
2022-10-09T08:24:17.057Z,9.10
2022-10-09T08:25:17.066Z,9.12
2022-10-09T08:26:17.071Z,9.14
2022-10-09T08:27:17.078Z,9.18
2022-10-09T08:28:17.152Z,9.21
2022-10-09T08:29:17.094Z,9.23
2022-10-09T08:30:17.101Z,9.24
2022-10-09T08:31:17.220Z,9.27
2022-10-09T08:32:17.112Z,9.31
2022-10-09T08:33:17.122Z,9.33
2022-10-09T08:34:17.126Z,9.35
2022-10-09T08:35:17.135Z,9.37
2022-10-09T08:36:17.144Z,9.40
2022-10-09T08:37:17.153Z,9.42
2022-10-09T08:38:31.260Z,9.44
2022-10-09T08:39:17.171Z,9.44
2022-10-09T08:40:17.179Z,9.47
2022-10-09T08:41:17.189Z,9.51
2022-10-09T08:42:17.198Z,9.51
2022-10-09T08:43:17.211Z,9.54
2022-10-09T08:44:17.215Z,9.56
2022-10-09T08:45:17.227Z,9.59
2022-10-09T08:46:20.684Z,9.62
2022-10-09T08:47:17.242Z,9.65
2022-10-09T08:48:17.247Z,9.67
2022-10-09T08:49:17.262Z,9.67
2022-10-09T08:50:17.267Z,9.67
2022-10-09T08:51:17.273Z,9.70
2022-10-09T08:52:17.282Z,9.73
2022-10-09T08:53:17.293Z,9.74
2022-10-09T08:54:17.296Z,9.76
2022-10-09T08:55:17.310Z,9.78
2022-10-09T08:56:17.311Z,9.80
2022-10-09T08:57:17.325Z,9.83
2022-10-09T08:58:17.325Z,9.85
2022-10-09T08:59:17.332Z,9.89
2022-10-09T09:00:17.339Z,9.93
2022-10-09T09:01:17.371Z,9.95
2022-10-09T09:02:17.357Z,9.97
2022-10-09T09:03:17.417Z,10.00
2022-10-09T09:04:17.367Z,10.02
2022-10-09T09:05:17.377Z,10.06
2022-10-09T09:06:17.382Z,10.08
2022-10-09T09:07:17.389Z,10.10
2022-10-09T09:08:17.400Z,10.10
2022-10-09T09:09:17.406Z,10.13
2022-10-09T09:10:18.814Z,10.15
2022-10-09T09:11:21.372Z,10.18
2022-10-09T09:12:17.422Z,10.21
2022-10-09T09:13:17.430Z,10.26
2022-10-09T09:14:17.437Z,10.29
2022-10-09T09:15:17.444Z,10.29
2022-10-09T09:16:17.500Z,10.31
2022-10-09T09:17:17.459Z,10.34
2022-10-09T09:18:17.464Z,10.36
2022-10-09T09:19:17.473Z,10.38
2022-10-09T09:20:17.478Z,10.39
2022-10-09T09:21:17.486Z,10.41
2022-10-09T09:22:17.494Z,10.42
2022-10-09T09:23:17.499Z,10.44
2022-10-09T09:24:17.507Z,10.46
2022-10-09T09:25:17.512Z,10.46
2022-10-09T09:26:17.523Z,10.48
2022-10-09T09:27:17.527Z,10.51
2022-10-09T09:28:17.570Z,10.53
2022-10-09T09:29:17.539Z,10.56
2022-10-09T09:30:17.547Z,10.58
2022-10-09T09:31:17.643Z,10.58
2022-10-09T09:32:17.559Z,10.60
2022-10-09T09:33:17.574Z,10.64
2022-10-09T09:34:17.580Z,10.66
2022-10-09T09:35:17.586Z,10.70
2022-10-09T09:36:17.594Z,10.71
2022-10-09T09:37:17.604Z,10.74
2022-10-09T09:38:17.611Z,10.77
2022-10-09T09:40:35.922Z,10.81
2022-10-09T09:41:17.639Z,10.83
2022-10-09T09:42:17.653Z,10.86
2022-10-09T09:43:17.649Z,10.89
2022-10-09T09:44:17.657Z,10.90
2022-10-09T09:45:17.668Z,10.96
2022-10-09T09:46:17.767Z,10.96
2022-10-09T09:47:17.685Z,11.01
2022-10-09T09:48:17.700Z,11.02
2022-10-09T09:49:17.701Z,11.01
2022-10-09T09:50:35.337Z,11.01
2022-10-09T09:51:27.783Z,11.04
2022-10-09T09:52:17.721Z,11.08
2022-10-09T09:53:17.730Z,11.09
2022-10-09T09:54:17.740Z,11.11
2022-10-09T09:55:17.750Z,11.14
2022-10-09T09:56:17.754Z,11.15
2022-10-09T09:57:21.777Z,11.19
2022-10-09T09:58:17.768Z,11.22
2022-10-09T09:59:17.775Z,11.23
2022-10-09T10:00:17.784Z,11.24
2022-10-09T10:01:17.852Z,11.26
2022-10-09T10:02:17.875Z,11.28
2022-10-09T10:03:17.803Z,11.29
2022-10-09T10:04:17.810Z,11.31
2022-10-09T10:05:17.815Z,11.33
2022-10-09T10:06:17.824Z,11.36
2022-10-09T10:07:17.832Z,11.40
2022-10-09T10:08:17.837Z,11.41
2022-10-09T10:09:17.845Z,11.42
2022-10-09T10:10:21.106Z,11.44
2022-10-09T10:11:17.858Z,11.45
2022-10-09T10:12:17.866Z,11.48
2022-10-09T10:13:17.873Z,11.55
2022-10-09T10:14:17.882Z,11.59
2022-10-09T10:15:17.890Z,11.62
2022-10-09T10:16:17.941Z,11.65
2022-10-09T10:17:17.908Z,11.68
2022-10-09T10:18:17.913Z,11.70
2022-10-09T10:19:17.918Z,11.72
2022-10-09T10:20:18.006Z,11.68
2022-10-09T10:21:17.936Z,11.71
2022-10-09T10:22:17.944Z,11.73
2022-10-09T10:23:17.947Z,11.77
2022-10-09T10:24:17.958Z,11.80
2022-10-09T10:25:17.963Z,11.85
2022-10-09T10:26:17.972Z,11.88
2022-10-09T10:27:17.980Z,11.92
2022-10-09T10:28:18.054Z,11.94
2022-10-09T10:29:17.999Z,11.96
2022-10-09T10:30:18.059Z,11.96
2022-10-09T10:31:18.062Z,11.95
2022-10-09T10:32:18.026Z,11.95
2022-10-09T10:33:18.033Z,11.98
2022-10-09T10:34:18.046Z,12.03
2022-10-09T10:35:18.055Z,12.03
2022-10-09T10:36:18.061Z,12.04
2022-10-09T10:37:18.068Z,12.08
2022-10-09T10:38:18.078Z,12.13
2022-10-09T10:39:18.085Z,12.17
2022-10-09T10:40:18.135Z,12.19
2022-10-09T10:41:18.100Z,12.22
2022-10-09T10:42:18.110Z,12.24
2022-10-09T10:43:18.117Z,12.25
2022-10-09T10:44:18.140Z,12.29
2022-10-09T10:45:18.133Z,12.28
2022-10-09T10:46:18.207Z,12.30
2022-10-09T10:47:18.150Z,12.33
2022-10-09T10:48:18.156Z,12.36
2022-10-09T10:49:18.164Z,12.39
2022-10-09T10:50:18.204Z,12.42
2022-10-09T10:51:18.178Z,12.46
2022-10-09T10:52:18.191Z,12.47
2022-10-09T10:53:18.191Z,12.50
2022-10-09T10:54:18.199Z,12.52
2022-10-09T10:55:18.207Z,12.57
2022-10-09T10:56:18.215Z,12.62
2022-10-09T10:57:18.228Z,12.66
2022-10-09T10:58:18.328Z,12.72
2022-10-09T10:59:18.236Z,12.77
2022-10-09T11:00:18.339Z,12.84
2022-10-09T11:01:18.274Z,12.97
2022-10-09T11:02:18.260Z,13.07
2022-10-09T11:03:18.340Z,13.14
2022-10-09T11:04:18.272Z,13.20
2022-10-09T11:05:18.280Z,13.26
2022-10-09T11:06:18.290Z,13.33
2022-10-09T11:07:18.302Z,13.42
2022-10-09T11:08:18.306Z,13.56
2022-10-09T11:09:18.318Z,13.67
2022-10-09T11:10:18.322Z,13.79
2022-10-09T11:11:18.330Z,13.90
2022-10-09T11:12:24.810Z,13.98
2022-10-09T11:13:18.354Z,14.06
2022-10-09T11:14:20.303Z,14.12
2022-10-09T11:15:18.366Z,14.07
2022-10-09T11:16:18.464Z,14.03
2022-10-09T11:17:18.380Z,13.95
2022-10-09T11:18:18.389Z,13.89
2022-10-09T11:19:18.394Z,13.83
2022-10-09T11:20:18.402Z,13.77
2022-10-09T11:21:18.412Z,13.70
2022-10-09T11:22:18.424Z,13.67
2022-10-09T11:23:18.434Z,13.63
2022-10-09T11:24:18.444Z,13.60
2022-10-09T11:25:18.455Z,13.60
2022-10-09T11:26:18.463Z,13.59
2022-10-09T11:27:18.474Z,13.57
2022-10-09T11:28:18.532Z,13.56
2022-10-09T11:29:18.493Z,13.61
2022-10-09T11:30:18.505Z,13.64
2022-10-09T11:31:18.553Z,13.68
2022-10-09T11:32:18.525Z,13.68
2022-10-09T11:33:18.536Z,13.73
2022-10-09T11:34:18.545Z,13.81
2022-10-09T11:35:18.553Z,13.86
2022-10-09T11:36:18.563Z,13.94
2022-10-09T11:37:18.571Z,13.99
2022-10-09T11:38:26.261Z,14.07
2022-10-09T11:39:18.660Z,14.09
2022-10-09T11:40:18.591Z,14.10
2022-10-09T11:41:18.601Z,14.12
2022-10-09T11:42:18.608Z,14.14
2022-10-09T11:43:18.617Z,14.16
2022-10-09T11:44:18.624Z,14.19
2022-10-09T11:45:18.642Z,14.25
2022-10-09T11:46:18.758Z,14.25
2022-10-09T11:47:18.660Z,14.27
2022-10-09T11:48:18.669Z,14.27
2022-10-09T11:49:18.677Z,14.23
2022-10-09T11:50:18.686Z,14.18
2022-10-09T11:51:18.687Z,14.12
2022-10-09T11:52:18.701Z,14.08
2022-10-09T11:53:18.710Z,14.04
2022-10-09T11:54:18.720Z,13.99
2022-10-09T11:55:18.732Z,13.97
2022-10-09T11:56:18.741Z,13.98
2022-10-09T11:57:18.750Z,14.02
2022-10-09T11:58:18.757Z,14.05
2022-10-09T11:59:18.766Z,14.15
2022-10-09T12:00:18.774Z,14.24
2022-10-09T12:01:18.804Z,14.34
2022-10-09T12:02:18.806Z,14.46
2022-10-09T12:03:18.798Z,14.60
2022-10-09T12:04:27.726Z,14.68
2022-10-09T12:05:18.811Z,14.73
2022-10-09T12:06:18.821Z,14.81
2022-10-09T12:07:18.829Z,14.93
2022-10-09T12:08:19.473Z,15.03
2022-10-09T12:09:18.841Z,15.08
2022-10-09T12:10:18.845Z,15.17
2022-10-09T12:11:18.852Z,15.27
2022-10-09T12:12:18.860Z,15.38
2022-10-09T12:13:18.873Z,15.45
2022-10-09T12:14:20.289Z,15.54
2022-10-09T12:15:18.888Z,15.60
2022-10-09T12:16:18.926Z,15.67
2022-10-09T12:17:18.906Z,15.69
2022-10-09T12:18:18.915Z,15.72
2022-10-09T12:19:18.923Z,15.70
2022-10-09T12:20:18.932Z,15.69
2022-10-09T12:21:18.937Z,15.66
2022-10-09T12:22:18.948Z,15.59
2022-10-09T12:23:26.508Z,15.52
2022-10-09T12:24:18.964Z,15.50
2022-10-09T12:25:18.974Z,15.49
2022-10-09T12:26:18.983Z,15.47
2022-10-09T12:27:18.990Z,15.47
2022-10-09T12:28:19.040Z,15.44
2022-10-09T12:29:19.004Z,15.39
2022-10-09T12:30:19.011Z,15.37
2022-10-09T12:31:19.062Z,15.31
2022-10-09T12:32:19.023Z,15.26
2022-10-09T12:33:19.027Z,15.23
2022-10-09T12:34:19.037Z,15.22
2022-10-09T12:35:19.044Z,15.16
2022-10-09T12:36:19.054Z,15.14
2022-10-09T12:37:19.059Z,15.13
2022-10-09T12:38:19.071Z,15.08
2022-10-09T12:39:19.076Z,15.05
2022-10-09T12:40:19.084Z,14.99
2022-10-09T12:41:20.348Z,14.93
2022-10-09T12:42:19.143Z,14.89
2022-10-09T12:43:19.108Z,14.84
2022-10-09T12:44:19.116Z,14.80
2022-10-09T12:45:19.141Z,14.77
2022-10-09T12:46:19.183Z,14.78
2022-10-09T12:47:19.145Z,14.82
2022-10-09T12:48:19.157Z,14.74
2022-10-09T12:49:19.166Z,14.78
2022-10-09T12:50:19.172Z,14.78
2022-10-09T12:51:19.185Z,14.79
2022-10-09T12:52:19.185Z,14.85
2022-10-09T12:53:19.201Z,14.89
2022-10-09T12:54:19.206Z,14.93
2022-10-09T12:55:19.216Z,14.98
2022-10-09T12:56:19.223Z,15.01
2022-10-09T12:57:20.943Z,15.02
2022-10-09T12:58:19.245Z,15.04
2022-10-09T12:59:19.252Z,15.03
2022-10-09T13:00:19.259Z,15.04
2022-10-09T13:01:19.344Z,15.07
2022-10-09T13:02:19.404Z,15.10
2022-10-09T13:03:19.287Z,15.13
2022-10-09T13:04:19.286Z,15.14
2022-10-09T13:05:19.299Z,15.15
2022-10-09T13:06:19.302Z,15.16
2022-10-09T13:07:19.308Z,15.15
2022-10-09T13:08:19.317Z,15.15
2022-10-09T13:09:19.324Z,15.17
2022-10-09T13:10:19.335Z,15.17
2022-10-09T13:11:19.342Z,15.19
2022-10-09T13:12:19.349Z,15.21
2022-10-09T13:13:19.362Z,15.24
2022-10-09T13:14:19.369Z,15.29
2022-10-09T13:15:19.379Z,15.33
2022-10-09T13:16:19.417Z,15.37
2022-10-09T13:17:19.408Z,15.41
2022-10-09T13:18:19.404Z,15.41
2022-10-09T13:19:19.416Z,15.41
2022-10-09T13:20:19.423Z,15.41
2022-10-09T13:21:19.435Z,15.41
2022-10-09T13:22:19.445Z,15.41
2022-10-09T13:23:19.451Z,15.41
2022-10-09T13:24:19.462Z,15.42
2022-10-09T13:25:19.472Z,15.49
2022-10-09T13:26:19.476Z,15.57
2022-10-09T13:27:19.510Z,15.62